Walhalla, Texas
Current Conditions -  °F | °C
As of 9:50 PM on Sunday 21 Dec 2014 (Local Time) from K3T5 Reporting Station
Overcast Overcast  
Wind Chill: 58°   Ceiling: 2700
Heat Index: 58°   Visibility: 10mi
Dew Point: 55°   Wind: 8mph
Humidity: 90%   Direction: 170°S
Pressure: 29.85"   Gusts: NA
Location:  30.0519°N, 96.7569°W
Report Text: K3T5 220350Z AUTO 17007KT 10SM SCT012 OVC027 15/13 A2985 RMK AO2 T01460130
Loading
Personal Weather Stations






























Interactive Weather Map New forecast layout! Learn more

10-Day Weather Forecast

Advertisements
Track Severe Weather on mobile